Birchington, United Kingdom
Current Conditions -  °F | °C
As of 6:20 PM on Wednesday 26 Nov 2014 (Local Time) from EGMC Reporting Station
Drizzle Drizzle  
Wind Chill: 50°   Ceiling: 300
Heat Index: 50°   Visibility: 1.3mi
Dew Point: 48°   Wind: 5mph
Humidity: 94%   Direction: 160°SSE
Pressure: 29.8"   Gusts: NA
Location:  51.37°N, 1.31°E
Report Text: EGMC 261820Z 16004KT 2200 R06/1200 -DZ BR BKN003 OVC004 10/09 Q1009
Loading
Personal Weather Stations






























Interactive Weather Map New forecast layout! Learn more

10-Day Weather Forecast

Advertisements
Track Severe Weather on mobile